• Join FlightAware (Why Join?)
  • Login
  • US Flag 
10:20AM EST


 

Airport Tracker/Info


-or-


 

Live Flight TrackerFlight Track Log ✈ N6858W ✈ 16-May-2013 ✈ KCPC - KLCI

Flight Track Log - Related Links

Times and Time Zones

All times are in EDT time to prevent confusion due to time zone crossing. See the N6858W flight status page for this flight to view local times or setup timezone preferences in your user account.

Time Position Orientation Groundspeed Altitude Reporting Facility
EDT Latitude Longitude Course Direction KTS MPH feet Rate Location/Type
10:44AM 34.3408 -78.3339 29° Northeast  Level FlightAware Approximate
10:45AM 34.3877 -78.3018 30° Northeast  Level FlightAware Approximate
10:46AM 34.4342 -78.2688 30° Northeast  Level FlightAware Approximate
10:47AM 34.4807 -78.2357 30° Northeast  Level FlightAware Approximate
10:48AM 34.5272 -78.2027 30° Northeast  Level FlightAware Approximate
10:49AM 34.5737 -78.1696 30° Northeast  Level FlightAware Approximate
10:50AM 34.6202 -78.1364 30° Northeast  Level FlightAware Approximate
10:51AM 34.6667 -78.1032 30° Northeast  Level FlightAware Approximate
10:51AM 34.7331 -78.0458 31° Northeast 205 236 8,900  Level Washington Center
10:52AM 34.7132 -78.0700 30° Northeast  Level FlightAware Approximate
10:52AM 34.7797 -78.0094 33° Northeast 206 237 8,900  Level Washington Center
10:53AM 34.7596 -78.0367 30° Northeast  Level FlightAware Approximate
10:53AM 34.8325 -77.9706 31° Northeast 206 237 8,900  Level Washington Center
10:54AM 34.8061 -78.0034 30° Northeast  Level FlightAware Approximate
10:54AM 34.8792 -77.9364 31° Northeast 206 237 8,900  Level Washington Center
10:55AM 34.8525 -77.9701 30° Northeast  Level FlightAware Approximate
10:55AM 34.9300 -77.8975 32° Northeast 205 236 8,900  Level Washington Center
10:56AM 34.8990 -77.9367 31° Northeast  Level FlightAware Approximate
10:56AM 34.9808 -77.8608 31° Northeast 206 237 8,900  Level Washington Center
10:57AM 35.0231 -77.8239 36° Northeast 205 236 8,900  Level Washington Center
10:58AM 35.0697 -77.7922 29° Northeast 203 234 8,900  Level Washington Center
10:59AM 35.1225 -77.7506 33° Northeast 205 236 9,000  Climbing Washington Center
11:00AM 35.1692 -77.7161 31° Northeast 204 235 8,900 -60 Descending Washington Center
11:01AM 35.2156 -77.6792 33° Northeast 205 236 8,900  Level Washington Center
11:02AM 35.2664 -77.6400 32° Northeast 206 237 8,900  Level Washington Center
11:03AM 35.3128 -77.6056 31° Northeast 205 236 9,000  Climbing Washington Center
11:04AM 35.3742 -77.5611 31° Northeast 207 238 9,000 -120 Level Washington Center
11:04AM 35.3889 -77.5514 28° Northeast 224 258 8,900 -120 Descending Washington Center
11:05AM 35.4394 -77.5142 31° Northeast 231 266 8,900  Level Washington Center
11:06AM 35.4922 -77.4772 30° Northeast 219 252 8,900  Level Washington Center
11:07AM 35.5408 -77.4453 28° Northeast 208 239 8,900  Level Washington Center
11:08AM 35.5914 -77.4133 27° Northeast 203 234 8,900  Level Washington Center
11:09AM 35.6483 -77.3761 28° Northeast 203 234 9,000  Climbing Washington Center
11:10AM 35.6989 -77.3389 31° Northeast 203 234 9,000  Level Washington Center
11:11AM 35.7494 -77.3042 29° Northeast 203 234 9,000  Level Washington Center
11:12AM 35.7981 -77.2719 28° Northeast 203 234 9,000  Level Washington Center
11:13AM 35.8506 -77.2372 28° Northeast 203 234 9,000  Level Washington Center
11:14AM 35.8992 -77.2022 30° Northeast 208 239 9,000 -60 Level Washington Center
11:15AM 35.9497 -77.1622 33° Northeast 208 239 8,900 -60 Descending Washington Center
11:16AM 36.0000 -77.1325 26° Northeast 203 234 8,900  Level Washington Center
11:17AM 36.0506 -77.0950 31° Northeast 203 234 8,900  Level Washington Center
11:18AM 36.1011 -77.0600 29° Northeast 203 234 8,900  Level Washington Center
11:19AM 36.1517 -77.0247 29° Northeast 203 234 8,900  Level Washington Center
11:20AM 36.2042 -76.9872 30° Northeast 203 234 8,900  Level Washington Center
11:21AM 36.2547 -76.9519 29° Northeast 203 234 8,900  Level Washington Center
11:22AM 36.3072 -76.9167 28° Northeast 203 234 8,900  Level Washington Center
11:23AM 36.3597 -76.8867 25° Northeast 217 250 9,000  Climbing Washington Center
11:24AM 36.4083 -76.8436 35° Northeast 216 249 9,000 -60 Level Washington Center
11:25AM 36.4567 -76.7981 37° Northeast 214 246 8,900 -60 Descending Washington Center
11:26AM 36.5050 -76.7547 36° Northeast 214 246 8,900  Level Washington Center
11:28AM 36.5578 -76.7142 32° Northeast 216 249 9,000  Climbing Washington Center
11:28AM 36.6039 -76.6683 39° Northeast 214 246 8,900 -60 Descending Washington Center
11:29AM 36.6522 -76.6250 36° Northeast 214 246 8,900  Level Washington Center
11:30AM 36.7006 -76.5842 34° Northeast 214 246 8,900 60 Level Washington Center
11:31AM 36.7489 -76.5406 36° Northeast 214 246 9,100 60 Climbing Washington Center
11:32AM 36.7972 -76.4997 34° Northeast 211 243 9,100  Level Washington Center
11:33AM 36.8456 -76.4561 36° Northeast 211 243 9,100  Level Washington Center
11:35AM 36.8917 -76.4150 35° Northeast 211 243 9,100  Level Washington Center
11:36AM 36.9422 -76.3664 38° Northeast 213 245 9,100  Level Washington Center
11:37AM 36.9967 -76.3200 34° Northeast 212 244 9,100  Level Washington Center
11:38AM 37.0450 -76.2736 37° Northeast 212 244 9,100  Level Washington Center
11:39AM 37.0953 -76.2325 33° Northeast 214 246 9,100  Level Washington Center
11:40AM 37.1392 -76.1911 37° Northeast 214 246 9,100  Level Washington Center
11:41AM 37.1875 -76.1472 36° Northeast 212 244 9,100  Level Washington Center
11:42AM 37.2356 -76.1031 36° Northeast 212 244 9,100  Level Washington Center
11:43AM 37.2881 -76.0564 35° Northeast 211 243 9,100  Level Washington Center
11:44AM 37.3339 -76.0122 37° Northeast 212 244 9,100 -60 Level Washington Center
11:45AM 37.3864 -75.9733 30° Northeast 230 265 9,000 -60 Descending Washington Center
11:46AM 37.4364 -75.9369 30° Northeast 224 258 9,000  Level Washington Center
11:47AM 37.4886 -75.9006 29° Northeast 213 245 9,000 -60 Level Washington Center
11:48AM 37.5389 -75.8617 32° Northeast 208 239 8,900 -60 Descending Washington Center
11:49AM 37.5869 -75.8225 33° Northeast 208 239 8,900  Level Washington Center
11:50AM 37.6392 -75.7858 29° Northeast 208 239 8,900  Level Washington Center
11:51AM 37.6872 -75.7467 33° Northeast 208 239 8,900  Level Washington Center
11:52AM 37.7372 -75.7125 28° Northeast 208 239 8,900  Level Washington Center
11:53AM 37.7894 -75.6758 29° Northeast 203 234 8,900  Level Washington Center
11:54AM 37.8394 -75.6364 32° Northeast 203 234 8,900  Level Washington Center
11:55AM 37.8894 -75.5969 32° Northeast 203 234 8,900  Level Washington Center
11:56AM 37.9394 -75.5575 32° Northeast 203 234 8,900  Level Washington Center
11:57AM 37.9897 -75.5206 30° Northeast 203 234 8,900  Level Washington Center
11:58AM 38.0397 -75.4836 30° Northeast 203 234 8,900  Level Washington Center
11:59AM 38.0917 -75.4467 29° Northeast 203 234 8,900  Level Washington Center
12:00PM 38.1439 -75.4147 26° Northeast 203 234 8,900  Level Washington Center
12:01PM 38.1958 -75.3803 28° Northeast 203 234 8,900  Level Washington Center
12:03PM 38.2764 -75.3189 31° Northeast  Level FlightAware Approximate
12:03PM 38.2978 -75.3167 31° Northeast 198 228 8,900  Level Washington Center
12:04PM 38.3561 -75.2767 28° Northeast 203 234 8,900  Level Washington Center
12:05PM 38.4083 -75.2447 26° Northeast 203 234 8,900  Level Washington Center
12:06PM 38.4581 -75.2125 27° Northeast 198 228 8,900  Level Washington Center
12:07PM 38.5103 -75.1753 29° Northeast 198 228 8,900  Level Washington Center
12:08PM 38.5600 -75.1403 29° Northeast 198 228 9,000  Climbing Washington Center
12:09PM 38.6100 -75.1133 23° Northeast 198 228 8,900 -60 Descending Washington Center
12:10PM 38.6600 -75.0811 27° Northeast 198 228 8,900  Level Washington Center
12:11PM 38.7119 -75.0489 26° Northeast 198 228 8,900  Level Washington Center
12:12PM 38.7617 -75.0167 27° Northeast 198 228 8,900  Level Washington Center
12:13PM 38.8136 -74.9842 26° Northeast 198 228 8,900  Level Washington Center
12:14PM 38.8656 -74.9517 26° Northeast 198 228 8,900  Level Washington Center
12:15PM 38.9156 -74.9194 27° Northeast 198 228 8,900  Level Washington Center
12:16PM 38.9653 -74.8867 27° Northeast 198 228 8,900  Level Washington Center
12:17PM 39.0172 -74.8542 26° Northeast 198 228 9,000  Climbing Washington Center
12:18PM 39.0692 -74.8189 28° Northeast 198 228 8,900  Descending Washington Center
12:19PM 39.1169 -74.7783 33° Northeast 198 228 9,000  Climbing Washington Center
12:20PM 39.1539 -74.7111 55° Northeast 204 235 9,000  Level Washington Center
12:21PM 39.1931 -74.6542 48° Northeast 204 235 9,000  Level Washington Center
12:22PM 39.2322 -74.5947 50° Northeast 210 242 9,000 -60 Level Washington Center
12:23PM 39.2711 -74.5353 50° Northeast 215 247 8,900 -60 Descending Washington Center
12:24PM 39.3003 -74.4892 51° Northeast 212 244 8,900  Level New York Center
12:25PM 39.3397 -74.4269 51° Northeast 212 244 8,900  Level New York Center
12:26PM 39.3772 -74.3669 51° Northeast 212 244 9,000  Climbing New York Center
12:27PM 39.4186 -74.3047 49° Northeast 217 250 9,000  Level New York Center
12:28PM 39.4622 -74.2397 49° Northeast 227 261 9,000  Level New York Center
12:29PM 39.5017 -74.1769 51° Northeast 227 261 9,000  Level New York Center
12:30PM 39.5408 -74.1169 50° Northeast 227 261 9,000  Level New York Center
12:31PM 39.5758 -74.0594 52° Northeast 227 261 9,000  Level New York Center
12:32PM 39.6172 -73.9994 48° Northeast 227 261 9,000  Level New York Center
12:33PM 39.6608 -73.9286 51° Northeast 227 261 9,000  Level New York Center
12:34PM 39.7022 -73.8631 51° Northeast 227 261 9,000  Level New York Center
12:35PM 39.7433 -73.8028 48° Northeast 227 261 9,000 -60 Level New York Center
12:36PM 39.7806 -73.7367 54° Northeast 222 255 8,900  Descending New York Center
12:37PM 39.8217 -73.6736 50° Northeast 222 255 9,000  Climbing New York Center
12:38PM 39.8608 -73.6078 52° Northeast 222 255 8,900  Descending New York Center
12:39PM 39.9019 -73.5444 50° Northeast 228 262 9,000  Climbing New York Center
12:41PM 40.0122 -73.4181 41° Northeast 228 262 9,000  Level Boston Center
12:42PM 40.0564 -73.3644 43° Northeast 218 251 9,000  Level Boston Center
12:43PM 40.1028 -73.3108 41° Northeast 218 251 9,000  Level Boston Center
12:44PM 40.1469 -73.2544 44° Northeast 218 251 9,000  Level Boston Center
12:45PM 40.1911 -73.2006 43° Northeast 218 251 9,000  Level Boston Center
12:46PM 40.2372 -73.1442 43° Northeast 218 251 9,000 -60 Level Boston Center
12:47PM 40.2814 -73.0928 42° Northeast 213 245 8,900  Descending Boston Center
12:48PM 40.3253 -73.0417 42° Northeast 213 245 9,000  Climbing Boston Center
12:49PM 40.3694 -72.9875 43° Northeast 213 245 9,000  Level Boston Center
12:50PM 40.4050 -72.9442 43° Northeast 213 245 9,000  Level Boston Center
12:51PM 40.4572 -72.8792 43° Northeast 213 245 9,000  Level Boston Center
12:53PM 40.5500 -72.7667 43° Northeast 214 246 9,000  Level New York TRACON
12:54PM 40.6000 -72.7167 37° Northeast 216 249 9,000  Level New York TRACON
12:55PM 40.6333 -72.6500 57° Northeast 218 251 9,000  Level New York TRACON
12:56PM 40.6833 -72.6000 37° Northeast 215 247 9,000  Level New York TRACON
12:57PM 40.7333 -72.5500 37° Northeast 216 249 9,000  Level New York TRACON
12:58PM 40.7667 -72.5000 49° Northeast 218 251 9,000  Level New York TRACON
12:59PM 40.8167 -72.4500 37° Northeast 218 251 9,000  Level New York TRACON
01:00PM 40.8667 -72.3833 45° Northeast 216 249 9,000 -60 Level New York TRACON
01:01PM 40.9042 -72.3386 42° Northeast 216 249 8,900 -120 Descending Boston Center
01:01PM 40.9206 -72.3164 46° Northeast 217 250 8,900  Level Boston Center
01:02PM 40.9686 -72.2972 17° North 218 251 8,900  Level Boston Center
01:03PM 41.0186 -72.2722 21° North 200 230 8,900  Level Boston Center
01:04PM 41.0706 -72.2475 20° North 197 227 9,000  Climbing Boston Center
01:05PM 41.1144 -72.2225 23° Northeast 191 220 9,000  Level Boston Center
01:06PM 41.1642 -72.1975 21° North 194 223 9,000  Level Boston Center
01:07PM 41.2183 -72.1725 19° North 194 223 9,000  Level Boston Center
01:08PM 41.2747 -72.1419 22° Northeast 196 226 9,000  Level Boston Center
01:10PM 41.3308 -72.1194 17° North 194 223 9,000  Level Boston Center
01:10PM 41.3767 -72.0942 22° Northeast 192 221 9,000  Level Boston Center
01:12PM 41.4347 -72.0636 22° Northeast 198 228 9,000  Level Boston Center
01:12PM 41.4806 -72.0356 25° Northeast 194 223 9,000  Level Boston Center
01:13PM 41.5283 -72.0186 15° North 190 219 9,000  Level Boston Center
01:14PM 41.5806 -72.0017 14° North 181 208 9,000  Level Boston Center
01:15PM 41.6283 -72.0069 355° North 171 197 9,000  Level Boston Center
01:16PM 41.6639 -72.0094 357° North 169 194 9,000  Level Boston Center
01:17PM 41.7119 -72.0119 358° North 170 196 9,000  Level Boston Center
01:18PM 41.7578 -72.0142 358° North 169 194 9,000  Level Boston Center
01:19PM 41.8056 -72.0194 355° North 168 193 9,000  Level Boston Center
01:20PM 41.8556 -72.0219 358° North 178 205 9,000  Level Boston Center
01:21PM 41.9078 -72.0244 358° North 180 207 9,000  Level Boston Center
01:22PM 41.9578 -72.0103 12° North 186 214 9,000  Level Boston Center
01:24PM 42.0243 -72.0133 358° North  Level FlightAware Approximate
01:24PM 42.0619 -71.9900 358° North 180 207 9,000  Level Boston Center
01:25PM 42.1139 -71.9811 North 182 209 9,000  Level Boston Center
01:26PM 42.1639 -71.9694 10° North 186 214 9,000  Level Boston Center
01:27PM 42.2119 -71.9608 North 178 205 9,000  Level Boston Center
01:28PM 42.2681 -71.9519 North 179 206 9,000  Level Boston Center
01:30PM 42.3200 -71.9375 12° North 198 228 9,000  Level Boston Center
01:31PM 42.3764 -71.9258 North 198 228 9,000  Level Boston Center
01:32PM 42.4283 -71.9169 North 192 221 9,000  Level Boston Center
01:33PM 42.4783 -71.9081 North 186 214 9,000  Level Boston Center
01:34PM 42.5283 -71.8992 North 179 206 9,000  Level Boston Center
01:35PM 42.5783 -71.8847 12° North 179 206 9,000 -60 Level Boston Center
01:36PM 42.6283 -71.8758 North 179 206 8,900 -300 Descending Boston Center
01:37PM 42.6783 -71.8669 North 179 206 8,500 -600 Descending Boston Center
01:38PM 42.7303 -71.8550 10° North 184 212 7,700 -780 Descending Boston Center
01:39PM 42.7781 -71.8319 20° North 179 206 7,000 -300 Descending Boston Center
01:40PM 42.8281 -71.8058 21° North 184 212 7,100  Climbing Boston Center
01:41PM 42.8778 -71.7828 19° North 189 217 7,100  Level Boston Center
01:42PM 42.9278 -71.7539 23° Northeast 189 217 7,100  Level Boston Center
01:43PM 42.9756 -71.7306 20° North 189 217 7,100 -300 Level Boston Center
01:44PM 43.0192 -71.7103 19° North 189 217 6,600 -660 Descending Boston Center
01:45PM 43.0669 -71.6842 22° Northeast 179 206 5,800 -840 Descending Boston Center
01:46PM 43.1083 -71.6608 22° Northeast 179 206 5,000 -360 Descending Boston Center
01:47PM 43.1561 -71.6375 20° North 167 192 5,100  Climbing Boston Center
01:48PM 43.2000 -71.6167 19° North 174 200 5,100  Level KA90
01:49PM 43.2500 -71.5833 26° Northeast 180 207 5,200  Climbing KA90
01:50PM 43.3000 -71.5500 26° Northeast 172 198 5,100 -240 Descending KA90
01:51PM 43.3500 -71.5333 14° North 174 200 4,700 -540 Descending KA90
01:52PM 43.4000 -71.5167 14° North 174 200 4,100 -600 Descending KA90
01:54PM 43.4819 -71.4582 27° Northeast  Level FlightAware Approximate
02:01PM 43.5667 -71.4167 14° North  Level FlightAware Approximate
02:02PM 43.5730 -71.4178 14° North  Level Estimated
02:03PM 43.5667 -71.4167 14° North  Level FlightAware Approximate